Time;durP1;ratioP1;P1;durP2;ratioP2;P2;SDS_P1;SDS_P2;PMS_P1;PMS_P2;Temp;Humidity;BMP_temperature;BMP_pressure;BME280_temperature;BME280_humidity;BME280_pressure;Samples;Min_cycle;Max_cycle;Signal;HPM_P1;HPM_P2
2023/01/07 00:01:47;;;;;;;9.27;7.07;;;11.20;99.90;;;;;;5052727;28;20393;-71
2023/01/07 00:04:14;;;;;;;9.02;8.18;;;11.20;99.90;;;;;;5047162;28;20163;-71
2023/01/07 00:06:42;;;;;;;7.65;7.05;;;11.20;99.90;;;;;;5040483;28;20025;-71
2023/01/07 00:09:11;;;;;;;7.63;6.97;;;11.20;99.90;;;;;;5043074;28;20122;-72
2023/01/07 00:11:39;;;;;;;7.60;6.90;;;11.30;99.90;;;;;;5050030;28;20029;-70
2023/01/07 00:14:06;;;;;;;9.75;6.72;;;11.30;99.90;;;;;;5051105;28;20025;-72
2023/01/07 00:16:34;;;;;;;9.23;7.00;;;11.20;99.90;;;;;;5033784;28;20030;-70
2023/01/07 00:19:01;;;;;;;6.82;6.32;;;11.30;99.90;;;;;;5040260;28;20108;-72
2023/01/07 00:21:28;;;;;;;7.40;6.70;;;11.10;99.90;;;;;;5052373;28;20044;-71
2023/01/07 00:23:55;;;;;;;5.65;5.15;;;11.20;99.90;;;;;;5051466;28;20021;-71
2023/01/07 00:26:23;;;;;;;8.25;6.45;;;11.10;99.90;;;;;;5052688;28;20025;-71
2023/01/07 00:28:50;;;;;;;9.15;7.20;;;11.20;99.90;;;;;;5052093;28;20032;-72
2023/01/07 00:31:21;;;;;;;7.95;6.22;;;11.10;99.90;;;;;;5052298;28;20128;-71
2023/01/07 00:34:05;;;;;;;7.00;6.47;;;11.10;99.90;;;;;;5052751;28;20063;-71
2023/01/07 00:36:35;;;;;;;7.90;6.28;;;11.00;99.90;;;;;;5052313;28;20040;-71
2023/01/07 00:39:05;;;;;;;6.70;6.07;;;11.00;99.90;;;;;;5051910;28;20103;-71
2023/01/07 00:41:30;;;;;;;7.28;6.10;;;10.90;99.90;;;;;;5051957;28;20400;-72
2023/01/07 00:43:56;;;;;;;7.97;6.10;;;10.90;99.90;;;;;;5051937;28;20021;-72
2023/01/07 00:46:22;;;;;;;7.07;6.18;;;10.80;99.90;;;;;;5052340;28;20628;-71
2023/01/07 00:48:48;;;;;;;7.00;6.40;;;10.80;99.90;;;;;;5051809;28;20021;-71
2023/01/07 00:51:15;;;;;;;6.78;5.90;;;10.80;99.90;;;;;;5051679;28;20036;-71
2023/01/07 00:53:41;;;;;;;7.22;6.55;;;10.70;99.90;;;;;;5052482;28;20493;-72
2023/01/07 00:56:09;;;;;;;6.85;6.20;;;10.70;99.90;;;;;;5051310;28;20037;-72
2023/01/07 00:58:34;;;;;;;6.72;6.13;;;10.80;99.90;;;;;;5052011;28;20167;-72
2023/01/07 01:01:01;;;;;;;9.88;6.30;;;10.70;99.90;;;;;;5051829;28;20124;-71
2023/01/07 01:03:28;;;;;;;6.95;6.30;;;10.80;99.90;;;;;;5051637;28;20029;-72
2023/01/07 01:05:54;;;;;;;8.48;6.25;;;10.80;99.90;;;;;;5051759;28;20029;-72
2023/01/07 01:08:21;;;;;;;10.85;6.45;;;10.90;99.90;;;;;;5052053;28;20024;-72
2023/01/07 01:10:49;;;;;;;6.45;5.85;;;10.90;99.90;;;;;;5051705;28;20435;-71
2023/01/07 01:13:17;;;;;;;7.57;5.90;;;11.00;99.90;;;;;;5052091;28;20028;-72
2023/01/07 01:15:47;;;;;;;7.18;6.47;;;10.90;99.90;;;;;;5052179;28;20035;-72
2023/01/07 01:18:15;;;;;;;8.35;5.53;;;11.00;99.90;;;;;;5051107;28;20025;-72
2023/01/07 01:20:41;;;;;;;6.43;5.93;;;11.00;99.90;;;;;;5051790;28;20447;-71
2023/01/07 01:23:07;;;;;;;6.60;6.00;;;11.00;99.90;;;;;;5052278;28;20033;-71
2023/01/07 01:25:33;;;;;;;8.70;6.53;;;10.90;99.90;;;;;;5051341;28;20086;-72
2023/01/07 01:27:58;;;;;;;7.85;7.00;;;11.00;99.90;;;;;;5051587;28;20029;-72
2023/01/07 01:30:24;;;;;;;8.25;6.82;;;11.00;99.90;;;;;;5052071;28;20447;-72
2023/01/07 01:32:49;;;;;;;9.43;7.45;;;11.00;99.90;;;;;;5051603;28;20020;-71
2023/01/07 01:35:15;;;;;;;9.10;6.43;;;11.00;99.90;;;;;;5054470;28;20078;-72
2023/01/07 01:37:41;;;;;;;7.60;6.90;;;11.00;99.90;;;;;;5055822;28;20123;-71
2023/01/07 01:40:08;;;;;;;8.13;7.32;;;11.00;99.90;;;;;;5055670;28;20036;-72
2023/01/07 01:42:34;;;;;;;7.90;6.97;;;11.00;99.90;;;;;;5056024;28;20025;-71
2023/01/07 01:45:00;;;;;;;7.80;7.10;;;11.00;99.90;;;;;;5055251;28;20522;-70
2023/01/07 01:47:37;;;;;;;10.32;7.28;;;11.10;99.90;;;;;;5055610;28;20053;-72
2023/01/07 01:50:24;;;;;;;9.85;8.57;;;11.10;99.90;;;;;;5055335;28;20465;-72
2023/01/07 01:53:01;;;;;;;9.50;7.45;;;11.10;99.90;;;;;;5055027;28;20548;-71
2023/01/07 01:55:35;;;;;;;9.32;7.93;;;11.10;99.90;;;;;;5055656;28;20075;-72
2023/01/07 01:58:06;;;;;;;9.25;7.38;;;11.10;99.90;;;;;;5055851;28;20549;-71
2023/01/07 02:00:32;;;;;;;;;;;11.00;99.90;;;;;;5056477;28;20033;-72
2023/01/07 02:02:58;;;;;;;11.95;7.30;;;11.00;99.90;;;;;;5055292;28;19904;-71
2023/01/07 02:05:29;;;;;;;9.98;7.82;;;11.00;99.90;;;;;;5056160;28;20033;-71
2023/01/07 02:07:55;;;;;;;9.02;7.57;;;10.90;99.90;;;;;;5054483;28;20525;-71
2023/01/07 02:10:22;;;;;;;8.68;6.68;;;10.90;99.90;;;;;;5055337;28;20116;-72
2023/01/07 02:12:57;;;;;;;10.00;7.70;;;10.80;99.90;;;;;;5054856;28;20025;-72
2023/01/07 02:15:43;;;;;;;8.23;7.45;;;10.70;99.90;;;;;;5054599;28;20421;-71
2023/01/07 02:18:51;;;;;;;8.23;6.95;;;10.70;99.90;;;;;;5055016;28;20025;-71
2023/01/07 02:21:37;;;;;;;8.30;7.50;;;10.60;99.90;;;;;;5054589;28;20389;-71
2023/01/07 02:24:28;;;;;;;9.85;7.63;;;10.60;99.90;;;;;;5054932;28;20021;-72
2023/01/07 02:27:24;;;;;;;7.97;7.07;;;10.50;99.90;;;;;;5041703;28;20093;-72
2023/01/07 02:30:14;;;;;;;7.68;6.72;;;10.40;99.90;;;;;;5043782;28;20046;-72
2023/01/07 02:33:00;;;;;;;10.23;7.77;;;10.40;99.90;;;;;;5037451;28;20029;-71
2023/01/07 02:36:00;;;;;;;10.27;7.43;;;10.40;99.90;;;;;;5038253;28;20049;-72
2023/01/07 02:38:39;;;;;;;8.93;7.75;;;10.30;99.90;;;;;;5048974;28;20485;-72
2023/01/07 02:41:18;;;;;;;9.40;7.32;;;10.30;99.90;;;;;;5036851;28;20478;-71
2023/01/07 02:43:44;;;;;;;8.38;7.43;;;10.30;99.90;;;;;;5054681;28;20108;-71
2023/01/07 02:46:36;;;;;;;10.57;7.35;;;10.40;99.90;;;;;;5053497;28;20448;-72
2023/01/07 02:49:08;;;;;;;10.85;6.95;;;10.30;99.90;;;;;;5042164;28;20449;-72
2023/01/07 02:51:37;;;;;;;9.75;6.40;;;10.40;99.90;;;;;;5053171;28;20039;-71
2023/01/07 02:54:10;;;;;;;11.82;7.38;;;10.40;99.90;;;;;;5054482;28;20028;-73
2023/01/07 02:57:08;;;;;;;12.18;7.03;;;10.40;99.90;;;;;;5054104;28;20100;-71
2023/01/07 03:00:14;;;;;;;9.02;6.55;;;10.40;99.90;;;;;;5054401;28;20029;-71
2023/01/07 03:03:01;;;;;;;8.93;6.68;;;10.30;99.90;;;;;;5031645;28;20029;-71
2023/01/07 03:05:50;;;;;;;7.05;6.40;;;10.30;99.90;;;;;;5034549;28;20041;-71
2023/01/07 03:08:22;;;;;;;11.05;6.40;;;10.30;99.90;;;;;;5030514;28;20040;-72
2023/01/07 03:10:58;;;;;;;9.85;6.78;;;10.30;99.90;;;;;;5053886;28;20111;-72
2023/01/07 03:14:03;;;;;;;8.32;7.40;;;10.20;99.90;;;;;;5053976;28;20025;-72
2023/01/07 03:16:35;;;;;;;9.15;6.63;;;10.20;99.90;;;;;;5052746;28;20057;-70
2023/01/07 03:19:06;;;;;;;9.70;7.55;;;10.10;99.90;;;;;;5040042;28;20021;-71
2023/01/07 03:21:34;;;;;;;10.63;6.05;;;10.10;99.90;;;;;;5053799;28;20041;-71
2023/01/07 03:24:01;;;;;;;11.80;6.72;;;10.20;99.90;;;;;;5053053;28;20017;-70
2023/01/07 03:26:34;;;;;;;9.20;6.47;;;10.10;99.90;;;;;;5054068;28;20086;-71
2023/01/07 03:29:06;;;;;;;9.93;6.15;;;10.20;99.90;;;;;;5053646;28;20021;-72
2023/01/07 03:31:32;;;;;;;8.65;6.53;;;10.20;99.90;;;;;;5052909;28;20049;-70
2023/01/07 03:34:10;;;;;;;10.93;6.50;;;10.10;99.90;;;;;;5053203;28;20032;-72
2023/01/07 03:36:40;;;;;;;11.80;6.35;;;10.10;99.90;;;;;;5054065;28;20063;-72
2023/01/07 03:39:09;;;;;;;10.02;6.10;;;10.10;99.90;;;;;;5050941;28;20096;-71
2023/01/07 03:44:20;;;;;;;11.63;6.50;;;10.20;99.90;;;;;;5053630;28;20019;-72
2023/01/07 03:46:46;;;;;;;8.20;6.13;;;10.10;99.90;;;;;;5053969;28;20116;-72
2023/01/07 03:49:11;;;;;;;10.07;6.45;;;10.10;99.90;;;;;;5053952;28;20029;-72
2023/01/07 03:51:37;;;;;;;12.70;6.63;;;10.10;99.90;;;;;;5053938;28;20032;-72
2023/01/07 03:54:03;;;;;;;9.00;6.22;;;10.10;99.90;;;;;;5053541;28;20025;-71
2023/01/07 03:56:29;;;;;;;10.55;6.50;;;10.20;99.90;;;;;;5054116;28;20116;-72
2023/01/07 03:58:54;;;;;;;9.82;6.57;;;10.20;99.90;;;;;;5053126;28;20103;-72
2023/01/07 04:01:20;;;;;;;11.40;6.72;;;10.20;99.90;;;;;;5053192;28;20029;-71
2023/01/07 04:03:45;;;;;;;11.95;6.80;;;10.20;99.90;;;;;;5054171;28;20400;-70
2023/01/07 04:06:11;;;;;;;12.82;7.53;;;10.10;99.90;;;;;;5039152;28;20094;-71
2023/01/07 04:08:37;;;;;;;11.35;7.50;;;11.20;99.90;;;;;;5053570;28;20021;-71
2023/01/07 04:11:02;;;;;;;10.90;7.30;;;10.20;99.90;;;;;;5053658;28;20527;-71
2023/01/07 04:13:28;;;;;;;11.48;7.05;;;10.20;99.90;;;;;;5052949;28;20052;-71
2023/01/07 04:15:54;;;;;;;10.82;7.22;;;10.30;99.90;;;;;;5053128;28;20033;-71
2023/01/07 04:18:19;;;;;;;12.13;6.60;;;10.30;99.90;;;;;;5053017;28;20040;-72
2023/01/07 04:20:47;;;;;;;12.65;7.07;;;10.40;99.90;;;;;;5052945;28;20037;-72
2023/01/07 04:23:16;;;;;;;11.63;7.45;;;10.40;99.90;;;;;;5052773;28;20021;-72
2023/01/07 04:25:44;;;;;;;10.63;6.85;;;10.30;99.90;;;;;;5053483;28;20036;-71
2023/01/07 04:28:10;;;;;;;17.45;8.20;;;10.30;99.90;;;;;;5052387;28;20036;-72
2023/01/07 04:30:37;;;;;;;12.82;7.93;;;10.40;99.90;;;;;;5053325;28;20053;-72
2023/01/07 04:33:03;;;;;;;14.85;7.88;;;10.30;99.90;;;;;;5057220;28;20389;-71
2023/01/07 04:35:29;;;;;;;12.23;7.65;;;10.40;99.90;;;;;;5059359;28;20028;-72
2023/01/07 04:37:54;;;;;;;11.88;7.82;;;10.30;99.90;;;;;;5060950;28;20032;-71
2023/01/07 04:40:20;;;;;;;10.57;7.53;;;10.40;99.90;;;;;;5042994;28;20041;-71
2023/01/07 04:42:46;;;;;;;12.35;7.82;;;10.30;99.90;;;;;;5056647;28;20051;-71
2023/01/07 04:45:11;;;;;;;14.05;7.57;;;10.30;99.90;;;;;;5054492;28;20461;-72
2023/01/07 04:47:37;;;;;;;9.60;7.22;;;10.30;99.90;;;;;;5058837;28;20386;-72
2023/01/07 04:50:02;;;;;;;13.73;7.45;;;10.30;99.90;;;;;;5059037;28;20025;-71
2023/01/07 04:52:28;;;;;;;12.93;7.15;;;10.20;99.90;;;;;;5059315;28;20025;-72
2023/01/07 04:54:53;;;;;;;11.50;6.78;;;10.20;99.90;;;;;;5056489;28;20041;-71
2023/01/07 04:57:19;;;;;;;11.63;7.40;;;10.30;99.90;;;;;;5057153;28;20033;-70
2023/01/07 04:59:44;;;;;;;9.45;7.35;;;10.20;99.90;;;;;;5057648;28;20574;-72
2023/01/07 05:02:10;;;;;;;10.57;7.38;;;10.20;99.90;;;;;;5051696;28;20431;-72
2023/01/07 05:04:36;;;;;;;10.80;6.75;;;10.20;99.90;;;;;;5058193;28;20033;-70
2023/01/07 05:07:01;;;;;;;11.43;7.53;;;10.20;99.90;;;;;;5056387;28;20025;-72
2023/01/07 05:09:27;;;;;;;11.15;6.57;;;10.30;99.90;;;;;;5051739;28;20025;-72
2023/01/07 05:11:52;;;;;;;9.10;5.85;;;10.20;99.90;;;;;;5056660;28;20040;-71
2023/01/07 05:14:18;;;;;;;8.65;6.68;;;10.20;99.90;;;;;;5051962;28;20082;-72
2023/01/07 05:16:43;;;;;;;9.13;6.82;;;10.20;99.90;;;;;;5033068;28;20105;-73
2023/01/07 05:19:10;;;;;;;8.02;6.50;;;10.30;99.90;;;;;;5031484;28;20064;-72
2023/01/07 05:21:36;;;;;;;9.13;7.15;;;10.20;99.90;;;;;;5030600;28;20443;-71
2023/01/07 05:24:01;;;;;;;9.55;6.60;;;10.30;99.90;;;;;;5031500;28;20034;-71
2023/01/07 05:26:27;;;;;;;15.05;6.70;;;10.30;99.90;;;;;;5030767;28;20029;-73
2023/01/07 05:28:52;;;;;;;8.13;6.07;;;10.30;99.90;;;;;;5030586;28;20057;-71
2023/01/07 05:31:19;;;;;;;11.52;6.63;;;10.30;99.90;;;;;;5039172;28;20481;-73
2023/01/07 05:33:45;;;;;;;8.18;6.03;;;10.30;99.90;;;;;;5030718;28;20028;-72
2023/01/07 05:36:11;;;;;;;8.73;6.03;;;10.30;99.90;;;;;;5030812;28;20029;-73
2023/01/07 05:38:37;;;;;;;7.05;6.35;;;10.20;99.90;;;;;;5030159;28;20057;-71
2023/01/07 05:41:03;;;;;;;7.88;5.70;;;10.30;99.90;;;;;;5030653;28;20180;-71
2023/01/07 05:43:29;;;;;;;7.90;5.63;;;10.20;99.90;;;;;;5032013;28;20505;-72
2023/01/07 05:45:55;;;;;;;6.63;5.53;;;10.20;99.90;;;;;;5039703;28;20116;-73
2023/01/07 05:48:20;;;;;;;8.88;5.43;;;10.20;99.90;;;;;;5031995;28;20028;-71
2023/01/07 05:50:46;;;;;;;7.78;5.72;;;10.20;99.90;;;;;;5031165;28;20026;-72
2023/01/07 05:53:12;;;;;;;6.15;5.38;;;10.10;99.90;;;;;;5031070;28;20018;-72
2023/01/07 05:55:38;;;;;;;8.57;4.88;;;10.10;99.90;;;;;;5031610;28;20021;-72
2023/01/07 05:58:04;;;;;;;12.38;5.35;;;10.10;99.90;;;;;;5030607;28;20355;-72
2023/01/07 06:00:30;;;;;;;8.23;4.88;;;10.10;99.90;;;;;;5031182;28;20041;-72
2023/01/07 06:02:56;;;;;;;11.13;5.38;;;10.10;99.90;;;;;;5044304;28;20496;-73
2023/01/07 06:05:21;;;;;;;7.90;5.18;;;10.10;99.90;;;;;;5046230;28;20029;-72
2023/01/07 06:07:47;;;;;;;8.15;5.10;;;10.00;99.90;;;;;;5042603;28;20386;-73
2023/01/07 06:10:13;;;;;;;9.88;4.72;;;9.90;99.90;;;;;;5051152;28;20037;-73
2023/01/07 06:12:39;;;;;;;5.57;4.72;;;10.00;99.90;;;;;;5051364;28;20125;-73
2023/01/07 06:15:10;;;;;;;6.45;5.13;;;9.90;99.90;;;;;;5051032;28;20036;-73
2023/01/07 06:17:35;;;;;;;5.90;4.70;;;9.90;99.90;;;;;;5051626;28;20075;-73
2023/01/07 06:20:01;;;;;;;5.03;4.63;;;9.80;99.90;;;;;;5049088;28;20029;-73
2023/01/07 06:22:26;;;;;;;8.55;4.63;;;9.80;99.90;;;;;;5051621;28;20060;-73
2023/01/07 06:24:52;;;;;;;6.35;4.53;;;9.70;99.90;;;;;;5053163;28;20036;-73
2023/01/07 06:27:18;;;;;;;4.95;4.45;;;9.70;99.90;;;;;;5039630;28;20029;-72
2023/01/07 06:29:43;;;;;;;5.65;4.50;;;9.60;99.90;;;;;;5053544;28;20125;-73
2023/01/07 06:32:09;;;;;;;7.40;4.47;;;9.50;99.90;;;;;;5048696;28;20116;-74
2023/01/07 06:34:34;;;;;;;6.40;3.70;;;9.50;99.90;;;;;;5047516;28;20082;-72
2023/01/07 06:37:00;;;;;;;5.57;4.00;;;9.40;99.90;;;;;;5035231;28;20026;-73
2023/01/07 06:39:26;;;;;;;4.28;3.70;;;9.40;99.90;;;;;;5035819;28;20032;-74
2023/01/07 06:41:51;;;;;;;4.40;3.50;;;9.50;99.90;;;;;;5046101;28;20496;-73
2023/01/07 06:44:17;;;;;;;3.75;3.45;;;9.50;99.90;;;;;;5056324;28;20024;-73
2023/01/07 06:46:42;;;;;;;4.25;3.80;;;9.50;99.90;;;;;;5055945;28;20032;-73
2023/01/07 06:49:08;;;;;;;6.20;3.72;;;9.50;99.90;;;;;;5054808;28;20090;-72
2023/01/07 06:51:34;;;;;;;4.30;3.72;;;9.50;99.90;;;;;;5055615;28;20047;-74
2023/01/07 06:54:00;;;;;;;5.13;3.35;;;9.50;99.90;;;;;;5054415;28;20032;-72
2023/01/07 06:56:25;;;;;;;6.25;3.65;;;9.60;99.90;;;;;;5054213;28;20378;-73
2023/01/07 06:58:51;;;;;;;4.63;3.45;;;9.70;99.90;;;;;;5055282;28;20017;-72
2023/01/07 07:01:17;;;;;;;4.30;3.10;;;9.70;99.90;;;;;;5054271;28;20523;-73
2023/01/07 07:03:42;;;;;;;4.07;3.08;;;9.80;99.90;;;;;;5055198;28;20021;-73
2023/01/07 07:06:08;;;;;;;3.53;3.08;;;9.80;99.90;;;;;;5054688;28;20021;-72
2023/01/07 07:08:33;;;;;;;4.97;2.67;;;9.90;99.90;;;;;;5053904;28;20473;-72
2023/01/07 07:10:59;;;;;;;3.10;2.25;;;9.90;99.90;;;;;;5054100;28;20396;-73
2023/01/07 07:13:32;;;;;;;5.53;2.88;;;10.00;99.90;;;;;;5054541;28;20033;-73
2023/01/07 07:15:57;;;;;;;3.28;2.15;;;10.10;99.90;;;;;;5054279;28;20041;-73
2023/01/07 07:18:23;;;;;;;2.92;2.17;;;10.10;99.90;;;;;;5054364;28;20036;-73
2023/01/07 07:20:48;;;;;;;3.30;2.38;;;10.20;99.90;;;;;;5055481;28;20041;-73
2023/01/07 07:23:14;;;;;;;2.22;2.03;;;10.20;99.90;;;;;;5053957;28;20020;-74
2023/01/07 07:25:40;;;;;;;5.28;2.67;;;10.20;99.90;;;;;;5054338;28;20037;-72
2023/01/07 07:28:06;;;;;;;3.83;1.80;;;10.20;99.90;;;;;;5054289;28;20031;-72
2023/01/07 07:30:32;;;;;;;5.38;2.45;;;10.30;99.90;;;;;;5053881;28;20132;-73
2023/01/07 07:33:02;;;;;;;3.85;1.85;;;10.30;99.90;;;;;;5053685;28;20017;-73
2023/01/07 07:35:27;;;;;;;7.60;2.10;;;10.30;99.90;;;;;;5054449;28;20021;-73
2023/01/07 07:37:53;;;;;;;3.22;1.67;;;10.30;99.90;;;;;;5053273;28;20116;-73
2023/01/07 07:40:19;;;;;;;2.17;1.90;;;10.30;99.90;;;;;;5041064;28;20030;-74
2023/01/07 07:42:44;;;;;;;3.78;2.42;;;10.30;99.90;;;;;;5052721;28;20040;-72
2023/01/07 07:45:14;;;;;;;4.80;1.90;;;10.30;99.90;;;;;;5053155;28;20128;-73
2023/01/07 07:47:41;;;;;;;2.35;1.67;;;10.20;99.90;;;;;;5053663;28;20024;-73
2023/01/07 07:50:07;;;;;;;2.13;1.33;;;10.30;99.90;;;;;;5053293;28;20033;-73
2023/01/07 07:52:32;;;;;;;4.90;2.15;;;10.20;99.90;;;;;;5052641;28;20029;-73
2023/01/07 07:54:58;;;;;;;1.65;1.50;;;10.20;99.90;;;;;;5053517;28;20465;-72
2023/01/07 07:57:23;;;;;;;7.13;1.35;;;10.30;99.90;;;;;;5053309;28;20025;-73
2023/01/07 07:59:49;;;;;;;1.63;1.33;;;10.20;99.90;;;;;;5053895;28;20084;-73
2023/01/07 08:02:15;;;;;;;3.55;1.77;;;10.20;99.90;;;;;;5054296;28;20575;-75
2023/01/07 08:04:40;;;;;;;3.13;1.63;;;10.20;99.90;;;;;;5053042;28;20817;-72
2023/01/07 08:07:06;;;;;;;3.58;1.75;;;10.20;99.90;;;;;;5053363;28;20017;-73
2023/01/07 08:09:32;;;;;;;3.63;1.88;;;10.30;99.90;;;;;;5052908;28;20402;-73
2023/01/07 08:11:58;;;;;;;2.60;1.85;;;10.20;99.90;;;;;;5052853;28;20021;-73
2023/01/07 08:14:23;;;;;;;3.30;1.85;;;10.20;99.90;;;;;;5052972;28;20029;-72
2023/01/07 08:16:49;;;;;;;2.75;1.70;;;10.20;99.90;;;;;;5053517;28;20029;-72
2023/01/07 08:19:15;;;;;;;3.83;1.85;;;10.20;99.90;;;;;;5052608;28;20013;-72
2023/01/07 08:21:40;;;;;;;2.42;1.60;;;10.20;99.90;;;;;;5052753;28;20036;-73
2023/01/07 08:24:06;;;;;;;2.10;1.85;;;10.20;99.90;;;;;;5052687;28;20021;-72
2023/01/07 08:26:31;;;;;;;5.10;1.63;;;10.20;99.90;;;;;;5053177;28;20028;-73
2023/01/07 08:28:57;;;;;;;4.07;1.85;;;10.30;99.90;;;;;;5052703;28;20100;-72
2023/01/07 08:31:23;;;;;;;2.40;1.98;;;10.20;99.90;;;;;;5050309;28;20056;-73
2023/01/07 08:33:48;;;;;;;4.43;1.77;;;10.20;99.90;;;;;;5051413;28;20032;-73
2023/01/07 08:36:14;;;;;;;1.70;1.60;;;10.20;99.90;;;;;;5052134;28;20074;-73
2023/01/07 08:38:39;;;;;;;1.85;1.60;;;10.20;99.90;;;;;;5052341;28;20512;-73
2023/01/07 08:41:05;;;;;;;1.95;1.55;;;10.30;99.90;;;;;;5037006;28;20039;-73
2023/01/07 08:43:32;;;;;;;2.45;1.60;;;10.30;99.90;;;;;;5051602;28;20072;-74
2023/01/07 08:45:57;;;;;;;1.70;1.60;;;10.30;99.90;;;;;;5051719;28;20046;-73
2023/01/07 08:48:23;;;;;;;2.60;1.75;;;10.40;99.90;;;;;;5051890;28;20017;-73
2023/01/07 08:50:51;;;;;;;3.65;1.60;;;10.40;99.90;;;;;;5050670;28;20493;-74
2023/01/07 08:53:20;;;;;;;2.45;1.90;;;10.40;99.90;;;;;;5050436;28;20022;-73
2023/01/07 08:55:46;;;;;;;4.10;2.08;;;10.40;99.90;;;;;;5049881;28;20025;-73
2023/01/07 08:58:18;;;;;;;5.75;1.73;;;10.20;99.90;;;;;;5050139;28;20461;-73
2023/01/07 09:00:43;;;;;;;3.40;1.30;;;10.40;99.90;;;;;;5047370;28;20702;-74
2023/01/07 09:03:09;;;;;;;7.78;1.40;;;10.40;99.90;;;;;;5044415;28;20029;-75
2023/01/07 09:05:34;;;;;;;1.92;1.23;;;10.50;99.90;;;;;;5031377;28;20048;-75
2023/01/07 09:08:02;;;;;;;2.10;1.30;;;10.50;99.90;;;;;;5031502;28;20029;-75
2023/01/07 09:10:28;;;;;;;2.30;1.45;;;10.60;99.90;;;;;;5032350;28;20029;-75
2023/01/07 09:12:54;;;;;;;1.70;1.60;;;10.60;99.90;;;;;;5031793;28;20035;-75
2023/01/07 09:15:19;;;;;;;1.15;1.10;;;10.60;99.90;;;;;;5031846;28;20013;-75
2023/01/07 09:17:45;;;;;;;1.98;1.30;;;10.60;99.90;;;;;;5043378;28;20024;-75
2023/01/07 09:20:11;;;;;;;1.65;1.38;;;10.60;99.90;;;;;;5053259;28;20021;-75
2023/01/07 09:22:36;;;;;;;2.50;1.42;;;10.60;99.90;;;;;;5053785;28;20021;-76
2023/01/07 09:25:03;;;;;;;2.00;1.33;;;10.70;99.90;;;;;;5035185;28;20040;-76
2023/01/07 09:27:29;;;;;;;2.78;1.45;;;10.70;99.90;;;;;;5031810;28;20033;-75
2023/01/07 09:29:57;;;;;;;2.58;1.60;;;10.70;99.90;;;;;;5031200;28;20125;-76
2023/01/07 09:32:27;;;;;;;2.35;1.30;;;10.70;99.90;;;;;;5038344;28;20067;-76
2023/01/07 09:34:53;;;;;;;1.40;1.30;;;10.80;99.90;;;;;;5031666;28;20025;-75
2023/01/07 09:37:19;;;;;;;1.60;1.50;;;10.80;99.90;;;;;;5044111;28;20026;-75
2023/01/07 09:39:45;;;;;;;3.17;1.67;;;10.90;99.90;;;;;;5048570;28;20393;-74
2023/01/07 09:42:13;;;;;;;2.30;1.20;;;10.80;99.90;;;;;;5038394;28;20091;-74
2023/01/07 09:44:57;;;;;;;0.93;0.90;;;10.80;99.90;;;;;;5031580;28;20025;-75
2023/01/07 09:47:25;;;;;;;3.35;1.10;;;10.90;99.90;;;;;;5032059;28;20033;-75
2023/01/07 09:49:56;;;;;;;1.17;1.08;;;10.90;99.90;;;;;;5031974;28;20374;-76
2023/01/07 09:52:25;;;;;;;;;;;11.00;99.90;;;;;;5032764;28;20026;-73
2023/01/07 09:54:55;;;;;;;2.03;1.13;;;11.00;99.90;;;;;;5031921;28;19912;-74
2023/01/07 09:57:21;;;;;;;1.17;1.08;;;11.00;99.90;;;;;;5035223;28;20104;-74
2023/01/07 09:59:49;;;;;;;1.90;0.90;;;11.00;99.90;;;;;;5035621;28;20113;-75
2023/01/07 10:02:30;;;;;;;1.40;1.23;;;11.00;99.90;;;;;;5035972;28;20462;-75
2023/01/07 10:05:07;;;;;;;;;;;11.00;99.90;;;;;;5035524;28;20034;-74
2023/01/07 10:07:59;;;;;;;2.40;0.80;;;11.00;99.90;;;;;;5036031;28;20384;-75
2023/01/07 10:10:56;;;;;;;3.35;1.52;;;11.10;99.90;;;;;;5034699;28;20052;-76
2023/01/07 10:13:42;;;;;;;1.42;1.27;;;11.20;99.90;;;;;;5038206;28;20044;-75
2023/01/07 10:16:22;;;;;;;1.00;0.90;;;11.20;99.90;;;;;;5036654;28;20029;-76
2023/01/07 10:19:26;;;;;;;1.77;0.80;;;11.10;99.90;;;;;;5036306;28;20029;-75
2023/01/07 10:22:03;;;;;;;1.88;1.10;;;11.20;99.90;;;;;;5035694;28;20373;-70
2023/01/07 10:24:40;;;;;;;1.35;1.10;;;11.10;99.90;;;;;;5035090;28;20075;-76
2023/01/07 10:27:31;;;;;;;1.42;1.10;;;11.20;99.90;;;;;;5038781;28;20021;-76
2023/01/07 10:30:04;;;;;;;1.35;1.20;;;11.20;99.90;;;;;;5059412;28;20041;-76
2023/01/07 10:32:35;;;;;;;1.77;1.48;;;11.20;99.90;;;;;;5036194;28;20088;-76
2023/01/07 10:35:00;;;;;;;;;;;11.30;99.90;;;;;;5047263;28;20492;-77
2023/01/07 10:37:27;;;;;;;1.40;1.20;;;11.40;99.90;;;;;;5048556;28;19958;-77
2023/01/07 10:40:11;;;;;;;2.80;1.40;;;11.40;99.90;;;;;;5047341;28;20052;-73
2023/01/07 10:43:35;;;;;;;1.35;1.25;;;11.40;99.90;;;;;;5047550;28;20025;-77
2023/01/07 10:46:38;;;;;;;3.30;1.60;;;11.40;99.90;;;;;;5031086;28;20400;-73
2023/01/07 10:49:32;;;;;;;1.50;1.40;;;11.50;99.90;;;;;;5038586;28;20029;-76
2023/01/07 10:52:21;;;;;;;1.65;1.30;;;11.50;99.90;;;;;;5035203;28;20029;-74
2023/01/07 10:55:19;;;;;;;3.22;0.90;;;11.60;99.90;;;;;;5046720;28;20116;-75
2023/01/07 10:57:47;;;;;;;4.38;1.05;;;11.60;99.90;;;;;;5050319;28;20361;-76
2023/01/07 11:00:15;;;;;;;2.33;1.17;;;11.70;99.90;;;;;;5040406;28;20400;-76
2023/01/07 11:02:51;;;;;;;1.52;0.90;;;11.70;99.90;;;;;;5041943;28;20031;-75
2023/01/07 11:05:20;;;;;;;0.80;0.80;;;11.80;99.90;;;;;;5044460;28;20036;-76
2023/01/07 11:07:55;;;;;;;1.50;1.10;;;11.80;99.90;;;;;;5044322;28;20413;-77
2023/01/07 11:10:24;;;;;;;1.17;1.08;;;11.80;99.90;;;;;;5049618;28;20021;-76
2023/01/07 11:12:55;;;;;;;2.45;0.80;;;11.80;99.90;;;;;;5048366;28;20044;-75
2023/01/07 11:15:23;;;;;;;0.90;0.90;;;11.90;99.90;;;;;;5051080;28;20469;-78
2023/01/07 11:18:04;;;;;;;1.10;1.00;;;11.90;99.90;;;;;;5044950;28;20029;-77
2023/01/07 11:20:48;;;;;;;2.47;0.98;;;11.80;99.90;;;;;;5037896;28;20082;-77
2023/01/07 11:23:33;;;;;;;1.08;1.00;;;11.90;99.90;;;;;;5047572;28;20024;-76
2023/01/07 11:26:21;;;;;;;1.50;1.23;;;11.90;99.90;;;;;;5043877;28;20489;-77
2023/01/07 11:29:22;;;;;;;1.38;1.20;;;11.90;99.90;;;;;;5050810;28;20029;-76
2023/01/07 11:31:51;;;;;;;5.35;0.80;;;11.90;99.90;;;;;;5042480;28;20135;-76
2023/01/07 11:34:33;;;;;;;2.37;0.97;;;11.90;99.90;;;;;;5044295;28;20524;-76
2023/01/07 11:36:59;;;;;;;2.50;1.08;;;12.00;99.90;;;;;;5047133;28;20037;-70
2023/01/07 11:39:28;;;;;;;1.45;1.00;;;12.00;99.90;;;;;;5045722;28;20377;-75
2023/01/07 11:41:58;;;;;;;1.25;0.88;;;12.00;99.90;;;;;;5050376;28;20041;-74
2023/01/07 11:44:24;;;;;;;2.35;0.70;;;12.10;99.90;;;;;;5046767;28;20076;-75
2023/01/07 11:46:50;;;;;;;1.40;1.10;;;12.10;99.90;;;;;;5047022;28;20032;-75
2023/01/07 11:49:28;;;;;;;1.00;0.90;;;12.10;99.90;;;;;;5043198;28;20033;-74
2023/01/07 11:51:55;;;;;;;1.48;1.23;;;12.20;99.90;;;;;;5048183;28;20013;-74
2023/01/07 11:54:28;;;;;;;1.10;1.00;;;12.20;99.90;;;;;;5045025;28;20033;-76
2023/01/07 11:57:19;;;;;;;1.55;1.02;;;12.20;99.90;;;;;;5046830;28;20516;-75
2023/01/07 11:59:45;;;;;;;1.55;1.10;;;12.20;99.90;;;;;;5047829;28;20029;-75
2023/01/07 12:02:24;;;;;;;2.85;1.10;;;12.10;99.90;;;;;;5046511;28;20455;-74
2023/01/07 12:04:50;;;;;;;8.13;2.20;;;12.10;99.90;;;;;;5045174;28;20025;-75
2023/01/07 12:07:16;;;;;;;2.22;1.40;;;12.00;99.90;;;;;;5044705;28;20029;-71
2023/01/07 12:09:43;;;;;;;1.00;0.90;;;12.00;99.90;;;;;;5052071;28;20059;-75
2023/01/07 12:12:35;;;;;;;3.30;1.05;;;12.00;99.90;;;;;;5041889;28;20020;-75
2023/01/07 12:15:16;;;;;;;0.93;0.88;;;12.00;99.90;;;;;;5041678;28;20482;-74
2023/01/07 12:17:46;;;;;;;1.88;1.27;;;12.00;99.90;;;;;;5045856;28;20013;-75
2023/01/07 12:20:26;;;;;;;2.88;1.45;;;11.90;99.90;;;;;;5040095;28;20362;-74
2023/01/07 12:23:07;;;;;;;;;;;11.90;99.90;;;;;;5044356;28;20184;-75
2023/01/07 12:25:46;;;;;;;1.40;1.20;;;11.90;99.90;;;;;;5044108;28;19904;-74
2023/01/07 12:28:38;;;;;;;2.95;1.58;;;11.90;99.90;;;;;;5046489;28;20025;-75
2023/01/07 12:31:20;;;;;;;3.05;1.50;;;11.90;99.90;;;;;;5047668;28;20048;-74
2023/01/07 12:34:14;;;;;;;1.52;1.38;;;11.90;99.90;;;;;;5045505;28;20473;-75
2023/01/07 12:37:00;;;;;;;1.85;1.30;;;12.00;99.90;;;;;;5043372;28;20035;-75
2023/01/07 12:39:39;;;;;;;2.90;1.50;;;11.90;99.90;;;;;;5043868;28;20477;-74
2023/01/07 12:42:23;;;;;;;1.98;1.60;;;11.90;99.90;;;;;;5051262;28;20049;-75
2023/01/07 12:44:53;;;;;;;2.90;1.50;;;11.90;99.90;;;;;;5048588;28;20053;-74
2023/01/07 12:47:33;;;;;;;1.52;1.42;;;11.90;99.90;;;;;;5055115;28;20032;-75
2023/01/07 12:50:10;;;;;;;2.47;1.15;;;11.90;99.90;;;;;;5048710;28;20055;-74
2023/01/07 12:52:48;;;;;;;2.22;1.33;;;11.90;99.90;;;;;;5043020;28;20071;-74
2023/01/07 12:55:24;;;;;;;1.30;1.20;;;11.80;99.90;;;;;;5031992;28;20431;-73
2023/01/07 12:58:14;;;;;;;1.52;1.38;;;11.90;99.90;;;;;;5032168;28;20025;-74
2023/01/07 13:01:15;;;;;;;1.38;1.25;;;11.90;99.90;;;;;;5031185;28;20365;-74
2023/01/07 13:03:53;;;;;;;1.33;1.23;;;11.80;99.90;;;;;;5032420;28;20017;-73
2023/01/07 13:06:52;;;;;;;1.50;1.38;;;11.90;99.90;;;;;;5031989;28;20429;-76
2023/01/07 13:09:36;;;;;;;1.38;1.10;;;11.90;99.90;;;;;;5031790;28;20469;-73
2023/01/07 13:15:03;;;;;;;1.40;1.30;;;11.90;99.90;;;;;;5030959;28;20508;-74